Time;durP1;ratioP1;P1;durP2;ratioP2;P2;SDS_P1;SDS_P2;PMS_P1;PMS_P2;Temp;Humidity;BMP_temperature;BMP_pressure;BME280_temperature;BME280_humidity;BME280_pressure;Samples;Min_cycle;Max_cycle;Signal;HPM_P1;HPM_P2
2022/07/18 00:01:01;;;;;;;6.15;2.97;;;;;;;29.92;33.13;101704.38;6194182;23;20001;-87
2022/07/18 00:03:26;;;;;;;7.43;3.60;;;;;;;29.86;33.23;101697.66;6157779;23;20049;-86
2022/07/18 00:05:52;;;;;;;5.63;3.30;;;;;;;29.87;33.02;101702.84;6163531;23;20130;-86
2022/07/18 00:08:18;;;;;;;9.25;3.03;;;;;;;29.76;32.98;101702.97;6140391;23;20005;-86
2022/07/18 00:10:44;;;;;;;6.78;3.60;;;;;;;29.75;33.21;101707.03;6162432;23;20016;-86
2022/07/18 00:13:10;;;;;;;7.00;3.40;;;;;;;29.74;33.16;101704.63;6168748;23;20405;-86
2022/07/18 00:15:37;;;;;;;6.90;3.17;;;;;;;29.65;33.22;101696.69;6163438;23;20013;-89
2022/07/18 00:18:03;;;;;;;7.88;2.95;;;;;;;29.61;33.46;101698.75;6165229;23;20137;-86
2022/07/18 00:20:29;;;;;;;8.43;3.40;;;;;;;29.62;33.44;101708.78;6138204;23;20009;-86
2022/07/18 00:22:55;;;;;;;8.20;3.42;;;;;;;29.59;33.52;101695.56;6136126;23;20005;-86
2022/07/18 00:25:22;;;;;;;8.70;4.25;;;;;;;29.52;33.27;101698.47;6134428;23;20029;-85
2022/07/18 00:27:48;;;;;;;7.30;3.97;;;;;;;29.52;33.71;101696.44;6138573;23;20037;-86
2022/07/18 00:30:14;;;;;;;9.80;3.22;;;;;;;29.46;33.61;101697.28;6164689;23;20005;-85
2022/07/18 00:32:40;;;;;;;6.20;3.10;;;;;;;29.40;33.74;101693.38;6139467;23;19992;-86
2022/07/18 00:35:06;;;;;;;8.27;4.35;;;;;;;29.35;33.62;101699.44;6137702;23;19989;-86
2022/07/18 00:37:32;;;;;;;19.67;9.70;;;;;;;29.34;33.75;101697.84;6165376;23;20064;-87
2022/07/18 00:39:58;;;;;;;12.10;4.28;;;;;;;29.21;33.99;101698.38;6139560;23;20005;-90
2022/07/18 00:42:24;;;;;;;7.95;3.10;;;;;;;29.16;33.77;101695.22;6139057;23;20009;-85
2022/07/18 00:44:56;;;;;;;7.25;3.72;;;;;;;29.09;34.21;101696.09;6163572;23;20025;-86
2022/07/18 00:47:22;;;;;;;5.63;2.90;;;;;;;29.14;33.96;101695.66;6138720;23;20036;-86
2022/07/18 00:49:48;;;;;;;8.45;3.22;;;;;;;29.15;33.91;101694.44;6138245;23;20008;-85
2022/07/18 00:52:14;;;;;;;9.07;3.72;;;;;;;29.09;33.92;101698.09;6162745;23;20013;-86
2022/07/18 00:54:40;;;;;;;10.93;3.30;;;;;;;29.06;33.97;101691.31;6164526;23;20006;-85
2022/07/18 00:57:06;;;;;;;7.60;3.75;;;;;;;29.01;34.14;101697.38;6139588;23;20012;-85
2022/07/18 01:02:16;;;;;;;7.93;3.33;;;;;;;28.86;34.55;101693.06;6166148;23;20028;-86
2022/07/18 01:04:42;;;;;;;6.57;3.05;;;;;;;28.85;34.51;101694.28;6193016;23;20440;-86
2022/07/18 01:07:09;;;;;;;9.52;3.15;;;;;;;28.80;34.85;101691.94;6195434;23;20012;-91
2022/07/18 01:09:34;;;;;;;7.82;3.25;;;;;;;28.70;34.68;101688.00;6192777;23;20446;-86
2022/07/18 01:12:01;;;;;;;8.02;3.83;;;;;;;28.65;34.77;101688.47;6167587;23;19997;-85
2022/07/18 01:14:27;;;;;;;11.45;3.67;;;;;;;28.40;35.08;101681.00;6167507;23;20005;-85
2022/07/18 01:16:53;;;;;;;8.27;3.47;;;;;;;28.25;35.15;101681.50;6169199;23;20005;-85
2022/07/18 01:19:19;;;;;;;8.68;3.83;;;;;;;28.18;35.53;101685.97;6193071;23;20452;-86
2022/07/18 01:21:44;;;;;;;9.57;3.75;;;;;;;28.17;35.45;101686.38;6166712;23;20004;-85
2022/07/18 01:24:10;;;;;;;7.68;3.35;;;;;;;28.07;35.83;101676.00;6194114;23;20073;-85
2022/07/18 01:26:36;;;;;;;8.60;3.80;;;;;;;28.14;35.38;101673.97;6193710;23;20001;-85
2022/07/18 01:29:02;;;;;;;8.38;3.90;;;;;;;28.13;35.48;101677.19;6196342;23;20011;-85
2022/07/18 01:31:33;;;;;;;6.63;3.50;;;;;;;28.11;35.42;101680.41;6195985;23;20425;-91
2022/07/18 01:33:59;;;;;;;11.05;3.53;;;;;;;28.11;35.44;101671.16;6193950;23;20001;-85
2022/07/18 01:36:25;;;;;;;4.75;3.35;;;;;;;28.07;35.63;101664.78;6190782;23;20371;-95
2022/07/18 01:38:51;;;;;;;6.32;2.67;;;;;;;28.08;35.16;101667.16;6192235;23;20088;-85
2022/07/18 01:41:17;;;;;;;7.78;3.22;;;;;;;28.09;35.37;101670.78;6191162;23;20112;-86
2022/07/18 01:43:43;;;;;;;5.90;3.50;;;;;;;28.11;35.51;101671.97;6192397;23;20372;-86
2022/07/18 01:46:10;;;;;;;7.22;3.30;;;;;;;28.15;35.34;101669.13;6167908;23;20005;-92
2022/07/18 01:48:40;;;;;;;7.05;3.17;;;;;;;28.03;35.43;101664.78;6194339;23;20444;-88
2022/07/18 01:51:09;;;;;;;5.78;3.67;;;;;;;28.05;35.32;101668.00;6190856;23;20005;-85
2022/07/18 01:53:37;;;;;;;6.07;2.85;;;;;;;27.98;35.49;101664.44;6164410;23;20037;-88
2022/07/18 01:56:04;;;;;;;7.97;3.65;;;;;;;28.17;35.05;101673.13;6193067;23;20005;-86
2022/07/18 01:58:30;;;;;;;6.38;3.13;;;;;;;28.29;34.84;101674.66;6192137;23;20025;-85
2022/07/18 02:00:55;;;;;;;7.13;3.00;;;;;;;28.23;34.89;101669.88;6190139;23;20004;-85
2022/07/18 02:03:21;;;;;;;3.83;2.70;;;;;;;28.26;34.85;101663.44;6191643;23;20013;-86
2022/07/18 02:05:47;;;;;;;6.40;3.20;;;;;;;28.26;34.72;101666.25;6166067;23;20009;-88
2022/07/18 02:08:12;;;;;;;6.75;3.70;;;;;;;28.29;34.87;101657.78;6188994;23;20001;-87
2022/07/18 02:10:38;;;;;;;6.70;3.65;;;;;;;28.25;35.20;101659.03;6162310;23;20068;-85
2022/07/18 02:13:05;;;;;;;12.07;3.75;;;;;;;28.24;34.83;101658.22;6189016;23;20012;-92
2022/07/18 02:15:30;;;;;;;4.95;3.35;;;;;;;28.19;34.88;101650.25;6190218;23;20421;-90
2022/07/18 02:17:57;;;;;;;7.68;3.60;;;;;;;28.15;34.98;101653.06;6188994;23;20037;-86
2022/07/18 02:20:23;;;;;;;9.45;4.18;;;;;;;28.12;34.96;101653.91;6188162;23;20001;-96
2022/07/18 02:22:48;;;;;;;6.97;3.97;;;;;;;28.08;35.23;101652.31;6186545;23;20096;-92
2022/07/18 02:25:14;;;;;;;6.32;3.22;;;;;;;28.02;35.23;101646.34;6187118;23;20039;-86
2022/07/18 02:27:40;;;;;;;5.07;3.15;;;;;;;27.96;35.48;101645.16;6160610;23;20059;-86
2022/07/18 02:30:08;;;;;;;7.60;3.33;;;;;;;27.92;35.47;101647.22;6187062;23;20011;-85
2022/07/18 02:32:37;;;;;;;9.57;3.65;;;;;;;27.89;35.45;101645.25;6187932;23;20005;-86
2022/07/18 02:35:05;;;;;;;8.82;4.30;;;;;;;27.83;35.56;101644.88;6187116;23;20051;-86
2022/07/18 02:37:30;;;;;;;9.88;4.10;;;;;;;27.82;35.61;101642.47;6186728;23;19997;-87
2022/07/18 02:39:56;;;;;;;9.05;4.00;;;;;;;27.77;35.67;101637.28;6186301;23;20001;-85
2022/07/18 02:42:22;;;;;;;5.03;3.83;;;;;;;27.81;35.58;101643.66;6187684;23;20008;-95
2022/07/18 02:44:48;;;;;;;5.13;3.15;;;;;;;27.84;35.52;101635.22;6160175;23;20451;-85
2022/07/18 02:47:13;;;;;;;6.70;3.35;;;;;;;27.84;35.56;101631.63;6185963;23;20023;-86
2022/07/18 02:49:39;;;;;;;8.65;3.30;;;;;;;27.78;35.41;101627.63;6185607;23;20044;-85
2022/07/18 02:52:08;;;;;;;6.47;3.30;;;;;;;27.76;35.58;101632.88;6185638;23;20492;-92
2022/07/18 02:54:35;;;;;;;7.55;3.40;;;;;;;27.62;35.73;101634.50;6159752;23;20001;-95
2022/07/18 02:57:01;;;;;;;8.25;3.95;;;;;;;27.58;35.92;101627.31;6185813;23;20001;-92
2022/07/18 02:59:28;;;;;;;6.05;3.70;;;;;;;27.62;35.62;101628.09;6161708;23;20012;-86
2022/07/18 03:01:55;;;;;;;6.07;3.30;;;;;;;27.55;35.91;101625.31;6188131;23;20002;-85
2022/07/18 03:04:21;;;;;;;5.00;2.75;;;;;;;27.51;35.89;101621.75;6161810;23;20044;-85
2022/07/18 03:06:47;;;;;;;4.85;3.67;;;;;;;27.43;35.88;101631.38;6187718;23;20028;-95
2022/07/18 03:09:14;;;;;;;7.03;3.33;;;;;;;27.41;36.12;101631.00;6161814;23;20067;-85
2022/07/18 03:11:40;;;;;;;9.50;3.78;;;;;;;27.43;36.02;101632.19;6161915;23;20085;-87
2022/07/18 03:14:05;;;;;;;5.80;3.42;;;;;;;27.42;35.89;101627.78;6187470;23;20005;-85
2022/07/18 03:16:31;;;;;;;7.90;4.22;;;;;;;27.31;35.77;101627.84;6186632;23;20036;-86
2022/07/18 03:18:57;;;;;;;7.63;3.60;;;;;;;27.30;36.22;101629.03;6188349;23;20001;-91
2022/07/18 03:21:23;;;;;;;6.50;3.65;;;;;;;27.32;36.00;101632.22;6161445;23;20063;-85
2022/07/18 03:23:49;;;;;;;6.45;3.05;;;;;;;27.37;36.03;101631.03;6161115;23;20341;-92
2022/07/18 03:26:15;;;;;;;7.60;4.30;;;;;;;27.32;36.06;101625.81;6187758;23;20431;-84
2022/07/18 03:28:41;;;;;;;4.97;3.40;;;;;;;27.32;36.19;101629.44;6187544;23;20421;-85
2022/07/18 03:31:06;;;;;;;9.98;4.00;;;;;;;27.25;36.01;101626.66;6187563;23;20005;-86
2022/07/18 03:33:32;;;;;;;9.43;3.75;;;;;;;27.17;36.48;101625.06;6161349;23;20005;-85
2022/07/18 03:35:58;;;;;;;7.68;4.65;;;;;;;27.20;36.20;101627.06;6187217;23;20058;-85
2022/07/18 03:38:24;;;;;;;4.88;3.33;;;;;;;27.04;36.58;101621.09;6187796;23;20011;-95
2022/07/18 03:40:49;;;;;;;6.45;3.60;;;;;;;26.89;36.53;101619.50;6187390;23;20056;-92
2022/07/18 03:43:15;;;;;;;6.97;3.45;;;;;;;26.89;36.52;101623.09;6161138;23;20032;-86
2022/07/18 03:45:40;;;;;;;4.63;3.22;;;;;;;26.83;36.67;101625.53;6187532;23;20037;-84
2022/07/18 03:48:06;;;;;;;5.68;3.55;;;;;;;26.75;36.68;101615.56;6187153;23;20005;-85
2022/07/18 03:50:33;;;;;;;4.53;3.30;;;;;;;26.70;36.60;101623.56;6162017;23;20009;-91
2022/07/18 03:52:59;;;;;;;5.07;3.83;;;;;;;26.59;36.59;101609.53;6161415;23;20352;-85
2022/07/18 03:55:25;;;;;;;7.43;3.38;;;;;;;26.47;36.75;101612.78;6187648;23;20001;-86
2022/07/18 03:57:51;;;;;;;5.80;3.10;;;;;;;26.41;36.89;101617.16;6187189;23;20005;-89
2022/07/18 04:00:16;;;;;;;10.43;5.38;;;;;;;26.35;36.70;101625.13;6187168;23;20001;-94
2022/07/18 04:02:45;;;;;;;9.52;4.15;;;;;;;26.29;37.19;101615.53;6186801;23;20016;-86
2022/07/18 04:05:11;;;;;;;5.70;3.70;;;;;;;26.24;37.14;101607.53;6186989;23;20375;-84
2022/07/18 04:07:37;;;;;;;7.88;3.55;;;;;;;26.19;37.16;101605.13;6186800;23;20055;-85
2022/07/18 04:10:04;;;;;;;5.80;3.67;;;;;;;26.13;37.03;101615.91;6160413;23;20009;-86
2022/07/18 04:12:31;;;;;;;6.43;4.13;;;;;;;26.18;37.00;101609.13;6186958;23;19997;-85
2022/07/18 04:14:56;;;;;;;10.20;3.97;;;;;;;26.12;37.04;101616.31;6187314;23;20012;-84
2022/07/18 04:17:22;;;;;;;6.35;3.65;;;;;;;26.10;37.36;101610.31;6160935;23;20340;-84
2022/07/18 04:19:48;;;;;;;10.85;4.60;;;;;;;26.09;37.30;101609.53;6160666;23;20012;-94
2022/07/18 04:22:14;;;;;;;6.32;3.50;;;;;;;26.01;37.20;101602.31;6160525;23;20013;-91
2022/07/18 04:24:40;;;;;;;12.15;4.05;;;;;;;25.96;37.48;101605.50;6159926;23;20089;-85
2022/07/18 04:27:05;;;;;;;6.53;3.88;;;;;;;26.00;37.43;101611.94;6160769;23;20051;-86
2022/07/18 04:29:31;;;;;;;9.48;4.40;;;;;;;25.96;37.45;101606.31;6186803;23;20428;-84
2022/07/18 04:31:58;;;;;;;9.98;4.30;;;;;;;25.91;37.66;101603.09;6160401;23;20036;-85
2022/07/18 04:34:24;;;;;;;9.60;4.18;;;;;;;25.91;37.63;101600.28;6186520;23;20001;-85
2022/07/18 04:36:49;;;;;;;8.57;3.65;;;;;;;26.02;37.27;101598.31;6160335;23;20344;-84
2022/07/18 04:39:16;;;;;;;8.02;4.70;;;;;;;26.07;37.56;101600.75;6160155;23;20017;-86
2022/07/18 04:41:43;;;;;;;9.45;4.55;;;;;;;26.11;37.30;101600.72;6160220;23;20017;-85
2022/07/18 04:44:09;;;;;;;6.28;3.88;;;;;;;26.09;37.78;101605.94;6160601;23;20001;-85
2022/07/18 04:46:35;;;;;;;13.60;5.60;;;;;;;26.03;37.48;101601.91;6160468;23;20067;-84
2022/07/18 04:49:01;;;;;;;7.43;4.13;;;;;;;25.97;37.70;101604.31;6160159;23;20001;-85
2022/07/18 04:51:27;;;;;;;6.55;4.07;;;;;;;25.99;37.45;101599.91;6187132;23;20023;-96
2022/07/18 04:53:54;;;;;;;7.65;3.72;;;;;;;25.98;37.71;101603.91;6159909;23;20080;-86
2022/07/18 04:56:21;;;;;;;8.20;4.20;;;;;;;25.99;37.60;101601.91;6160524;23;20005;-85
2022/07/18 04:58:47;;;;;;;8.93;4.22;;;;;;;26.06;37.65;101603.91;6187185;23;20016;-85
2022/07/18 05:01:13;;;;;;;7.32;3.97;;;;;;;26.12;37.28;101599.53;6187922;23;20388;-93
2022/07/18 05:03:39;;;;;;;5.85;3.70;;;;;;;26.10;37.89;101597.13;6144122;23;20013;-96
2022/07/18 05:06:05;;;;;;;9.75;4.35;;;;;;;26.13;37.53;101598.31;6156715;23;20002;-84
2022/07/18 05:08:33;;;;;;;7.22;4.15;;;;;;;26.23;37.73;101594.75;6131004;23;20093;-85
2022/07/18 05:10:59;;;;;;;13.57;4.15;;;;;;;26.21;37.67;101597.13;6130450;23;20056;-95
2022/07/18 05:13:25;;;;;;;8.35;4.03;;;;;;;26.18;37.92;101595.13;6131216;23;20005;-84
2022/07/18 05:15:51;;;;;;;5.90;3.90;;;;;;;26.17;37.81;101593.53;6131445;23;20012;-84
2022/07/18 05:18:16;;;;;;;8.57;4.03;;;;;;;26.02;38.10;101594.72;6130689;23;20008;-85
2022/07/18 05:20:42;;;;;;;8.90;5.13;;;;;;;25.98;37.91;101589.09;6130200;23;20084;-85
2022/07/18 05:23:08;;;;;;;12.25;4.25;;;;;;;26.03;37.46;101593.50;6130492;23;20006;-83
2022/07/18 05:25:34;;;;;;;5.28;3.65;;;;;;;26.00;37.82;101595.13;6130571;23;20052;-85
2022/07/18 05:27:59;;;;;;;10.18;4.70;;;;;;;25.95;38.16;101590.72;6130808;23;20437;-94
2022/07/18 05:30:25;;;;;;;8.23;4.65;;;;;;;26.02;38.03;101586.31;6156715;23;20078;-94
2022/07/18 05:32:52;;;;;;;8.90;3.97;;;;;;;26.19;37.97;101585.53;6130578;23;20481;-86
2022/07/18 05:35:18;;;;;;;11.52;4.47;;;;;;;26.22;38.07;101585.53;6157968;23;20083;-85
2022/07/18 05:37:44;;;;;;;7.53;4.28;;;;;;;26.32;38.15;101577.53;6157152;23;20002;-84
2022/07/18 05:40:12;;;;;;;9.55;4.05;;;;;;;26.43;38.01;101579.13;6156685;23;20001;-96
2022/07/18 05:42:38;;;;;;;7.20;3.67;;;;;;;26.31;38.41;101571.13;6156813;23;20008;-92
2022/07/18 05:45:04;;;;;;;7.60;4.43;;;;;;;26.42;38.45;101571.94;6156589;23;20006;-92
2022/07/18 05:47:30;;;;;;;6.78;3.58;;;;;;;26.54;38.30;101573.53;6156275;23;20005;-93
2022/07/18 05:49:56;;;;;;;8.35;3.55;;;;;;;26.50;38.45;101579.13;6130864;23;20006;-84
2022/07/18 05:52:22;;;;;;;7.10;4.07;;;;;;;26.62;38.02;101577.91;6156516;23;20334;-87
2022/07/18 05:54:47;;;;;;;8.05;4.30;;;;;;;26.54;38.37;101577.13;6131060;23;19998;-84
2022/07/18 05:57:13;;;;;;;9.45;4.57;;;;;;;26.50;38.37;101575.53;6130768;23;20008;-85
2022/07/18 05:59:39;;;;;;;11.07;4.18;;;;;;;26.60;38.75;101571.94;6156549;23;20029;-85
2022/07/18 06:02:05;;;;;;;7.88;4.15;;;;;;;26.91;38.48;101564.66;6130781;23;20029;-84
2022/07/18 06:04:30;;;;;;;11.13;4.78;;;;;;;27.03;38.28;101569.00;6130147;23;20017;-84
2022/07/18 06:06:56;;;;;;;14.50;4.68;;;;;;;27.05;38.65;101566.59;6156465;23;20037;-84
2022/07/18 06:09:22;;;;;;;8.90;4.70;;;;;;;27.32;38.69;101578.91;6129458;23;20623;-89
2022/07/18 06:11:48;;;;;;;10.50;3.95;;;;;;;27.45;38.70;101567.25;6156711;23;20361;-85
2022/07/18 06:14:14;;;;;;;8.93;4.22;;;;;;;27.52;38.56;101572.81;6156700;23;20436;-87
2022/07/18 06:16:39;;;;;;;11.05;4.30;;;;;;;27.61;38.63;101568.34;6157175;23;20014;-84
2022/07/18 06:19:05;;;;;;;9.43;5.00;;;;;;;27.82;38.46;101572.25;6156597;23;20008;-83
2022/07/18 06:21:31;;;;;;;8.18;3.95;;;;;;;27.88;38.85;101570.59;6130424;23;19997;-84
2022/07/18 06:23:57;;;;;;;7.25;4.07;;;;;;;27.97;39.01;101568.16;6156621;23;20002;-83
2022/07/18 06:26:23;;;;;;;9.05;4.25;;;;;;;28.12;38.49;101563.22;6129710;23;20008;-92
2022/07/18 06:28:48;;;;;;;11.98;4.97;;;;;;;28.24;38.23;101567.50;6156703;23;20437;-91
2022/07/18 06:31:17;;;;;;;8.25;4.38;;;;;;;28.25;38.59;101564.28;6131579;23;20084;-84
2022/07/18 06:33:43;;;;;;;7.32;4.03;;;;;;;28.33;38.56;101563.03;6130787;23;20013;-84
2022/07/18 06:36:11;;;;;;;8.10;4.40;;;;;;;28.53;38.44;101559.66;6132000;23;20001;-84
2022/07/18 06:38:38;;;;;;;11.05;4.45;;;;;;;28.66;37.98;101553.09;6131035;23;20345;-84
2022/07/18 06:41:05;;;;;;;10.88;4.47;;;;;;;28.80;37.86;101568.22;6130748;23;20013;-85
2022/07/18 06:43:31;;;;;;;9.27;4.20;;;;;;;28.91;37.75;101560.47;6130995;23;20009;-88
2022/07/18 06:45:57;;;;;;;12.35;4.53;;;;;;;29.00;37.48;101564.38;6157323;23;20075;-88
2022/07/18 06:48:24;;;;;;;6.85;4.32;;;;;;;29.09;37.33;101557.44;6158201;23;20052;-86
2022/07/18 06:50:50;;;;;;;16.48;5.88;;;;;;;29.14;37.22;101566.22;6156053;23;20425;-95
2022/07/18 06:53:15;;;;;;;7.72;3.85;;;;;;;29.24;37.11;101564.47;6130644;23;20005;-84
2022/07/18 06:55:41;;;;;;;8.77;4.20;;;;;;;29.19;37.38;101565.75;6130921;23;20008;-84
2022/07/18 06:58:07;;;;;;;9.68;3.85;;;;;;;29.34;37.52;101565.56;6130475;23;20001;-85
2022/07/18 07:00:32;;;;;;;4.88;3.30;;;;;;;29.42;37.41;101570.69;6157450;23;20029;-84
2022/07/18 07:02:58;;;;;;;9.48;4.90;;;;;;;29.38;37.27;101571.94;6165347;23;20013;-84
2022/07/18 07:05:24;;;;;;;7.15;3.85;;;;;;;29.45;37.41;101569.03;6186760;23;20040;-84
2022/07/18 07:07:49;;;;;;;5.25;3.63;;;;;;;29.63;37.04;101563.97;6186020;23;20012;-93
2022/07/18 07:10:17;;;;;;;9.75;4.35;;;;;;;29.65;37.07;101572.78;6158871;23;20428;-84
2022/07/18 07:12:48;;;;;;;10.40;4.78;;;;;;;29.58;37.53;101564.44;6185571;23;20016;-84
2022/07/18 07:15:15;;;;;;;11.18;4.72;;;;;;;29.87;37.47;101564.03;6158990;23;20427;-85
2022/07/18 07:17:40;;;;;;;8.27;4.93;;;;;;;29.87;37.49;101569.66;6158946;23;20005;-85
2022/07/18 07:20:07;;;;;;;10.75;4.22;;;;;;;29.88;37.62;101566.41;6159701;23;20028;-84
2022/07/18 07:22:53;;;;;;;11.32;4.88;;;;;;;29.99;37.41;101561.38;6185373;23;20009;-84
2022/07/18 07:25:23;;;;;;;7.63;3.47;;;;;;;30.16;37.50;101570.03;6158648;23;20362;-84
2022/07/18 07:27:49;;;;;;;16.08;4.35;;;;;;;30.17;37.18;101558.31;6186451;23;20005;-86
2022/07/18 07:30:15;;;;;;;8.95;4.90;;;;;;;30.34;36.68;101562.03;6159163;23;20012;-84
2022/07/18 07:32:43;;;;;;;12.93;3.83;;;;;;;30.33;36.39;101561.25;6185719;23;20001;-84
2022/07/18 07:35:11;;;;;;;7.18;3.08;;;;;;;30.61;36.37;101557.13;6183307;23;20044;-84
2022/07/18 07:37:40;;;;;;;7.47;3.42;;;;;;;30.81;35.87;101559.97;6159426;23;20429;-86
2022/07/18 07:40:07;;;;;;;;;;;;;;;30.89;34.80;101550.13;6160078;23;20013;-94
2022/07/18 07:42:33;;;;;;;7.47;2.85;;;;;;;31.07;34.60;101549.78;6159651;23;19908;-90
2022/07/18 07:44:58;;;;;;;5.63;2.70;;;;;;;31.30;33.94;101554.56;6187297;23;20059;-84
2022/07/18 07:47:24;;;;;;;13.70;3.63;;;;;;;31.39;33.38;101559.63;6187644;23;20009;-89
2022/07/18 07:49:51;;;;;;;5.47;3.03;;;;;;;31.49;32.29;101550.09;6187570;23;20008;-86
2022/07/18 07:52:17;;;;;;;12.00;2.92;;;;;;;31.53;32.27;101545.19;6187318;23;20009;-88
2022/07/18 07:54:46;;;;;;;6.63;3.10;;;;;;;31.51;31.59;101553.28;6159588;23;20005;-84
2022/07/18 07:57:13;;;;;;;5.70;2.70;;;;;;;31.57;31.24;101547.91;6187735;23;20076;-86
2022/07/18 07:59:38;;;;;;;4.05;2.50;;;;;;;31.60;30.98;101544.22;6161285;23;20088;-88
2022/07/18 08:02:04;;;;;;;4.95;2.95;;;;;;;31.75;30.99;101551.13;6186769;23;20101;-84
2022/07/18 08:04:30;;;;;;;16.75;3.13;;;;;;;31.92;30.77;101549.91;6187058;23;20096;-87
2022/07/18 08:06:56;;;;;;;5.05;2.67;;;;;;;32.02;30.72;101556.53;6187081;23;20059;-85
2022/07/18 08:09:22;;;;;;;4.78;2.33;;;;;;;32.01;30.18;101547.25;6187753;23;20083;-85
2022/07/18 08:11:47;;;;;;;6.30;3.05;;;;;;;32.30;29.96;101540.88;6160679;23;20364;-95
2022/07/18 08:14:13;;;;;;;7.82;2.65;;;;;;;32.39;29.36;101540.25;6187321;23;20028;-85
2022/07/18 08:16:39;;;;;;;4.75;2.70;;;;;;;32.57;29.22;101532.06;6161227;23;20001;-87
2022/07/18 08:19:05;;;;;;;3.90;2.38;;;;;;;32.52;29.38;101527.78;6161534;23;20444;-85
2022/07/18 08:21:30;;;;;;;20.60;4.63;;;;;;;32.56;29.39;101528.47;6161269;23;20380;-85
2022/07/18 08:24:00;;;;;;;6.18;2.72;;;;;;;32.76;28.70;101531.13;6185510;23;20502;-87
2022/07/18 08:26:25;;;;;;;5.93;2.35;;;;;;;32.91;28.83;101511.75;6161118;23;20005;-85
2022/07/18 08:28:51;;;;;;;5.68;2.00;;;;;;;32.90;27.98;101517.84;6187250;23;20089;-87
2022/07/18 08:31:18;;;;;;;16.48;3.60;;;;;;;33.09;27.75;101511.19;6187578;23;20332;-85
2022/07/18 08:33:45;;;;;;;3.75;2.10;;;;;;;33.23;27.27;101526.97;6185913;23;20013;-87
2022/07/18 08:36:11;;;;;;;11.10;3.88;;;;;;;33.31;28.09;101517.78;6161308;23;20052;-89
2022/07/18 08:38:36;;;;;;;7.88;3.03;;;;;;;33.37;29.10;101515.19;6160966;23;20013;-87
2022/07/18 08:41:03;;;;;;;8.20;3.42;;;;;;;33.35;30.03;101506.38;6159072;23;20005;-87
2022/07/18 08:43:30;;;;;;;11.23;3.70;;;;;;;33.27;29.85;101516.34;6187369;23;20012;-84
2022/07/18 08:46:06;;;;;;;7.10;3.13;;;;;;;33.22;29.44;101519.72;6162046;23;20008;-92
2022/07/18 08:48:33;;;;;;;8.32;3.45;;;;;;;33.26;29.38;101512.72;6161768;23;20059;-92
2022/07/18 08:51:01;;;;;;;8.18;3.30;;;;;;;33.26;29.45;101521.22;6162443;23;20479;-93
2022/07/18 08:53:27;;;;;;;7.15;3.20;;;;;;;33.32;29.81;101513.72;6162513;23;20005;-95
2022/07/18 08:55:53;;;;;;;4.85;2.80;;;;;;;33.46;29.66;101518.16;6161971;23;20016;-93
2022/07/18 08:58:20;;;;;;;21.30;4.93;;;;;;;33.63;29.45;101518.84;6161812;23;20026;-93
2022/07/18 09:00:47;;;;;;;8.23;2.90;;;;;;;33.65;29.43;101517.16;6188818;23;20432;-94
2022/07/18 09:03:13;;;;;;;7.60;3.15;;;;;;;33.59;29.68;101510.47;6162534;23;20021;-92
2022/07/18 09:05:41;;;;;;;7.43;3.55;;;;;;;33.59;29.84;101513.31;6186536;23;20011;-90
2022/07/18 09:08:26;;;;;;;6.13;3.10;;;;;;;33.42;29.69;101509.00;6162006;23;20462;-94
2022/07/18 09:10:56;;;;;;;6.13;3.17;;;;;;;33.44;30.01;101523.50;6161602;23;20063;-90
2022/07/18 09:13:24;;;;;;;;;;;;;;;33.31;30.51;101511.34;6161730;23;20009;-91
2022/07/18 09:15:58;;;;;;;7.95;3.42;;;;;;;33.51;30.89;101503.44;6161130;23;19931;-90
2022/07/18 09:18:33;;;;;;;30.90;6.38;;;;;;;33.27;31.52;101505.00;6160688;23;20036;-89
2022/07/18 09:21:08;;;;;;;8.77;3.70;;;;;;;33.14;31.51;101502.16;6161199;23;20005;-91
2022/07/18 09:23:38;;;;;;;47.38;7.78;;;;;;;33.10;31.51;101493.78;6188136;23;20012;-89
2022/07/18 09:26:04;;;;;;;8.68;3.88;;;;;;;33.10;31.30;101490.13;6160809;23;20005;-89
2022/07/18 09:28:53;;;;;;;7.75;3.72;;;;;;;33.10;31.26;101490.97;6161930;23;20013;-89
2022/07/18 09:31:27;;;;;;;26.10;5.57;;;;;;;32.98;31.44;101485.25;6160071;23;20005;-93
2022/07/18 09:34:01;;;;;;;5.50;3.15;;;;;;;32.83;31.16;101482.03;6163321;23;20724;-87
2022/07/18 09:36:28;;;;;;;7.20;3.65;;;;;;;33.00;30.95;101477.91;6190782;23;20005;-93
2022/07/18 09:38:55;;;;;;;14.50;4.00;;;;;;;32.89;30.61;101480.28;6188092;23;20012;-91
2022/07/18 09:41:30;;;;;;;6.88;3.33;;;;;;;32.98;30.33;101477.56;6164338;23;20016;-91
2022/07/18 09:43:57;;;;;;;7.60;3.20;;;;;;;33.09;30.41;101489.34;6186082;23;20016;-88
2022/07/18 09:46:24;;;;;;;10.93;3.97;;;;;;;33.25;29.85;101485.66;6160097;23;20032;-93
2022/07/18 09:49:09;;;;;;;7.35;3.17;;;;;;;33.31;29.46;101483.81;6160883;23;20033;-90
2022/07/18 09:51:35;;;;;;;12.88;4.15;;;;;;;33.39;29.46;101481.56;6161190;23;20005;-92
2022/07/18 09:54:02;;;;;;;13.93;4.82;;;;;;;33.53;29.99;101481.13;6161443;23;20056;-90
2022/07/18 09:56:33;;;;;;;7.35;3.80;;;;;;;33.69;29.72;101488.69;6186753;23;20579;-90
2022/07/18 09:59:00;;;;;;;11.57;4.57;;;;;;;33.77;29.80;101495.69;6160891;23;20421;-90
2022/07/18 10:01:27;;;;;;;7.72;4.45;;;;;;;33.77;29.90;101492.06;6186397;23;20009;-92
2022/07/18 10:03:53;;;;;;;24.98;5.85;;;;;;;33.81;29.46;101496.38;6165332;23;20017;-91
2022/07/18 10:06:19;;;;;;;17.05;4.20;;;;;;;33.81;29.84;101493.56;6157243;23;20033;-92
2022/07/18 10:08:45;;;;;;;7.72;3.63;;;;;;;33.62;30.08;101488.91;6131836;23;20092;-90
2022/07/18 10:11:10;;;;;;;16.15;4.32;;;;;;;33.74;29.61;101478.84;6130670;23;20089;-91
2022/07/18 10:13:37;;;;;;;10.35;5.60;;;;;;;33.58;29.68;101474.09;6131394;23;20033;-88
2022/07/18 10:16:04;;;;;;;5.68;3.60;;;;;;;33.62;29.18;101475.53;6130708;23;20009;-91
2022/07/18 10:18:32;;;;;;;10.85;3.72;;;;;;;33.66;28.73;101469.78;6157169;23;20060;-91
2022/07/18 10:21:02;;;;;;;9.52;3.80;;;;;;;33.81;28.56;101470.88;6131235;23;20015;-89
2022/07/18 10:23:41;;;;;;;14.35;3.63;;;;;;;34.07;28.28;101465.94;6131450;23;20084;-89
2022/07/18 10:26:17;;;;;;;9.25;3.67;;;;;;;34.16;28.14;101457.53;6130427;23;20302;-82
2022/07/18 10:28:58;;;;;;;10.30;4.45;;;;;;;34.29;28.08;101465.19;6130988;23;20013;-89
2022/07/18 10:31:30;;;;;;;6.57;3.10;;;;;;;34.41;28.06;101455.88;6131123;23;20010;-91
2022/07/18 10:34:05;;;;;;;18.27;5.53;;;;;;;34.20;28.12;101444.00;6131235;23;20002;-91
2022/07/18 10:36:31;;;;;;;8.10;3.13;;;;;;;34.37;27.90;101458.00;6130634;23;20005;-91
2022/07/18 10:39:09;;;;;;;7.15;3.10;;;;;;;34.32;27.63;101455.78;6130417;23;20088;-91
2022/07/18 10:41:41;;;;;;;6.25;3.03;;;;;;;34.45;27.48;101457.31;6130430;23;20323;-90
2022/07/18 10:44:24;;;;;;;12.35;4.32;;;;;;;34.54;27.46;101456.59;6130652;23;20377;-89
2022/07/18 10:47:20;;;;;;;5.32;3.20;;;;;;;34.43;28.49;101454.16;6126770;23;20100;-91
2022/07/18 10:49:46;;;;;;;8.23;3.10;;;;;;;34.51;28.14;101454.69;6119824;23;20445;-91
2022/07/18 10:52:30;;;;;;;35.97;7.75;;;;;;;34.48;28.49;101455.63;6121607;23;20019;-91
2022/07/18 10:55:05;;;;;;;8.52;3.80;;;;;;;34.49;28.39;101455.16;6121315;23;20010;-91
2022/07/18 10:57:35;;;;;;;9.38;3.28;;;;;;;34.45;28.27;101450.84;6121719;23;20033;-91
2022/07/18 11:00:09;;;;;;;9.10;3.80;;;;;;;34.44;28.60;101450.06;6122232;23;20488;-91
2022/07/18 11:02:40;;;;;;;6.47;3.60;;;;;;;34.39;28.92;101447.00;6127360;23;20020;-91
2022/07/18 11:05:24;;;;;;;14.70;4.18;;;;;;;34.46;28.42;101458.91;6149761;23;20013;-90
2022/07/18 11:07:59;;;;;;;7.60;3.53;;;;;;;34.46;28.64;101453.25;6149604;23;20088;-92
2022/07/18 11:13:32;;;;;;;40.53;6.38;;;;;;;34.68;28.38;101447.53;6178941;23;20083;-88
2022/07/18 11:16:22;;;;;;;8.15;3.55;;;;;;;34.89;28.22;101442.28;6179147;23;20004;-88
2022/07/18 11:18:50;;;;;;;;;;;;;;;34.71;28.75;101443.00;6155221;23;20013;-87
2022/07/18 11:21:28;;;;;;;9.20;3.78;;;;;;;34.86;29.13;101446.84;6158196;23;19908;-88
2022/07/18 11:23:59;;;;;;;7.43;3.70;;;;;;;34.46;29.64;101460.94;6156463;23;20017;-88
2022/07/18 11:26:25;;;;;;;9.10;3.55;;;;;;;34.21;30.08;101447.63;6154274;23;20044;-90
2022/07/18 11:28:58;;;;;;;9.73;4.00;;;;;;;34.14;29.99;101460.03;6154030;23;20009;-90
2022/07/18 11:31:25;;;;;;;7.22;4.03;;;;;;;33.97;30.54;101460.66;6155738;23;20545;-90